GCRR Airport Information

Runway Information
Runway 03 Length 7874 ft width 148 ft
Elevation 18 ft Threshold ft Heading 27
Runway 21 Length 7874 ft Width 148 ft
Elevation 47 ft Threshold ft Heading 207
Airport Frequencies
Type APP Name CANARIAS A Frequency 129.3 MHZ
Type ATIS Name ATIS Frequency 118.625 MHZ
Type GND Name GND Frequency 121.8 MHZ
Type TWR Name TWR Frequency 120.7 MHZ
Airport Navaids
Type VOR-DME Name Lanzarote Frequency 113700 KHZ
Type NDB Name Lanzarote Frequency 310 KHZ
Type VOR-DME Name Lanzarote Frequency 115200 KHZ
Type TACAN Name Lanzarote Frequency 114700 KHZ
Airport Weather Information & NOTAM
ADDS - METARS form results

(0957 UTC 07 July 2022)
Data provider http://aviationweather.gov/metar/data/
 
METAR text: GCRR 070930Z 36018KT 330V030 9999 FEW022 24/16 Q1019
Conditions at: GCRR (ARRECIFE/LANZARO, ES) observed 0930 UTC 07 July 2022
Temperature: 24.0°C (75°F)
Dewpoint: 16.0°C (61°F) [RH = 61%]
Pressure (altimeter): 30.09 inches Hg (1019.0 mb)
Winds: from the N (360 degrees) at 21 MPH (18 knots; 9.3 m/s)
Visibility: 6 or more miles (10+ km)
Ceiling: at least 12,000 feet AGL
Clouds: few clouds at 2200 feet AGL
Weather: no significant weather observed at this time

METAR text: GCRR 070900Z 36018KT 9999 FEW021 23/16 Q1019
Conditions at: GCRR (ARRECIFE/LANZARO, ES) observed 0900 UTC 07 July 2022
Temperature: 23.0°C (73°F)
Dewpoint: 16.0°C (61°F) [RH = 65%]
Pressure (altimeter): 30.09 inches Hg (1019.0 mb)
Winds: from the N (360 degrees) at 21 MPH (18 knots; 9.3 m/s)
Visibility: 6 or more miles (10+ km)
Ceiling: at least 12,000 feet AGL
Clouds: few clouds at 2100 feet AGL
Weather: no significant weather observed at this time

Forecast for: GCRR (ARRECIFE/LANZARO, ES)
Text: TAF GCRR 070800Z 0709/0809 01022KT 9999 FEW025 TX29/0714Z TN20/0806Z
Forecast period: 0900 UTC 07 July 2022 to 0900 UTC 08 July 2022
Forecast type: FROM: standard forecast or significant change
Winds: from the N (10 degrees) at 25 MPH (22 knots; 11.3 m/s)
Visibility: 6 or more miles (10+ km)
Ceiling: at least 12,000 feet AGL
Clouds: few clouds at 2500 feet AGL
Weather: no significant weather forecast for this period
Text: PROB30
Forecast period: 0900 to 1100 UTC 07 July 2022
Forecast type: TEMPORARY: The following changes expected for less than half the time period
Winds: from the N (10 degrees) at 14 MPH (12 knots; 6.2 m/s)
Visibility: missing
Ceiling: unknown
Clouds: missing
Weather: no significant weather forecast for this period
Text: TEMPO 0709/0711 01012KT
Forecast period: 1200 to 2000 UTC 07 July 2022
Forecast type: TEMPORARY: The following changes expected for less than half the time period
Winds: from the N (10 degrees) at 29 MPH (25 knots; 12.9 m/s)
gusting to 40 MPH (35 knots; 18.0 m/s)
Visibility: missing
Ceiling: unknown
Clouds: missing
Weather: no significant weather forecast for this period